createdAt,value
2023-02-26T00:01:32.809Z,45.35
2023-02-26T00:04:02.197Z,45.69
2023-02-26T00:06:30.531Z,45.83
2023-02-26T00:08:58.414Z,45.55
2023-02-26T00:11:27.925Z,45.85
2023-02-26T00:13:56.264Z,45.85
2023-02-26T00:16:28.854Z,46.15
2023-02-26T00:18:57.484Z,46.04
2023-02-26T00:21:27.007Z,46.06
2023-02-26T00:23:54.960Z,46.16
2023-02-26T00:26:24.311Z,46.15
2023-02-26T00:28:53.989Z,46.33
2023-02-26T00:31:24.869Z,46.30
2023-02-26T00:33:53.602Z,46.44
2023-02-26T00:36:24.857Z,46.39
2023-02-26T00:39:02.964Z,46.71
2023-02-26T00:41:31.345Z,46.79
2023-02-26T00:44:01.021Z,46.76
2023-02-26T00:46:41.014Z,46.70
2023-02-26T00:49:19.393Z,46.71
2023-02-26T00:51:50.556Z,46.77
2023-02-26T00:54:22.117Z,46.84
2023-02-26T00:56:50.611Z,47.01
2023-02-26T00:59:20.729Z,47.25
2023-02-26T01:01:49.039Z,47.38
2023-02-26T01:04:18.181Z,47.69
2023-02-26T01:06:48.258Z,47.53
2023-02-26T01:09:23.942Z,47.74
2023-02-26T01:11:52.684Z,47.82
2023-02-26T01:14:23.180Z,47.72
2023-02-26T01:16:57.473Z,47.87
2023-02-26T01:19:34.319Z,47.63
2023-02-26T01:22:09.354Z,47.87
2023-02-26T01:24:38.324Z,47.69
2023-02-26T01:27:06.457Z,47.85
2023-02-26T01:29:35.853Z,47.90
2023-02-26T01:32:09.783Z,47.77
2023-02-26T01:34:43.244Z,47.96
2023-02-26T01:37:22.747Z,48.06
2023-02-26T01:40:14.061Z,47.90
2023-02-26T01:42:45.580Z,48.03
2023-02-26T01:45:19.091Z,48.15
2023-02-26T01:47:52.759Z,48.21
2023-02-26T01:50:25.694Z,48.33
2023-02-26T01:53:18.428Z,48.30
2023-02-26T01:55:50.411Z,48.24
2023-02-26T01:58:19.123Z,48.28
2023-02-26T02:00:48.130Z,48.17
2023-02-26T02:03:16.021Z,48.46
2023-02-26T02:05:48.250Z,48.42
2023-02-26T02:08:17.229Z,48.34
2023-02-26T02:10:47.263Z,48.54
2023-02-26T02:13:23.272Z,48.74
2023-02-26T02:16:01.136Z,48.86
2023-02-26T02:18:38.669Z,48.81
2023-02-26T02:21:23.770Z,49.02
2023-02-26T02:23:56.780Z,48.85
2023-02-26T02:26:51.296Z,48.78
2023-02-26T02:29:57.240Z,48.96
2023-02-26T02:32:31.912Z,48.88
2023-02-26T02:35:05.864Z,48.71
2023-02-26T02:37:38.114Z,49.11
2023-02-26T02:40:08.726Z,48.91
2023-02-26T02:42:41.034Z,49.13
2023-02-26T02:45:12.662Z,49.28
2023-02-26T02:47:44.307Z,49.45
2023-02-26T02:50:18.477Z,49.37
2023-02-26T02:52:51.931Z,49.68
2023-02-26T02:55:23.638Z,49.33
2023-02-26T02:57:56.630Z,49.42
2023-02-26T03:00:25.563Z,49.11
2023-02-26T03:03:01.986Z,48.80
2023-02-26T03:05:29.701Z,48.30
2023-02-26T03:08:01.644Z,48.04
2023-02-26T03:10:29.812Z,48.06
2023-02-26T03:12:57.517Z,48.24
2023-02-26T03:15:34.816Z,48.18
2023-02-26T03:18:14.018Z,48.04
2023-02-26T03:20:54.364Z,48.23
2023-02-26T03:23:26.190Z,48.40
2023-02-26T03:25:57.606Z,48.50
2023-02-26T03:28:31.729Z,48.55
2023-02-26T03:31:03.898Z,48.72
2023-02-26T03:33:46.538Z,49.14
2023-02-26T03:36:19.699Z,49.45
2023-02-26T03:38:50.503Z,49.71
2023-02-26T03:41:23.209Z,49.95
2023-02-26T03:43:58.247Z,49.91
2023-02-26T03:46:30.746Z,50.31
2023-02-26T03:49:04.150Z,50.29
2023-02-26T03:51:32.254Z,50.46
2023-02-26T03:54:06.987Z,50.61
2023-02-26T03:56:40.292Z,51.29
2023-02-26T03:59:08.032Z,50.67
2023-02-26T04:01:41.322Z,50.83
2023-02-26T04:04:13.594Z,50.90
2023-02-26T04:06:42.813Z,51.43
2023-02-26T04:09:10.589Z,51.46
2023-02-26T04:11:39.851Z,51.70
2023-02-26T04:14:07.550Z,51.69
2023-02-26T04:16:35.232Z,51.88
2023-02-26T04:19:02.922Z,52.15
2023-02-26T04:21:32.005Z,52.70
2023-02-26T04:23:59.662Z,52.65
2023-02-26T04:26:27.477Z,52.61
2023-02-26T04:28:55.174Z,52.78
2023-02-26T04:31:22.987Z,52.76
2023-02-26T04:33:50.660Z,53.06
2023-02-26T04:36:18.410Z,53.17
2023-02-26T04:38:47.418Z,53.11
2023-02-26T04:41:15.081Z,53.12
2023-02-26T04:43:42.792Z,53.19
2023-02-26T04:46:10.541Z,52.98
2023-02-26T04:48:38.345Z,53.03
2023-02-26T04:51:06.221Z,53.26
2023-02-26T04:53:33.843Z,53.86
2023-02-26T04:56:03.003Z,53.97
2023-02-26T04:58:30.715Z,54.09
2023-02-26T05:00:58.830Z,54.25
2023-02-26T05:03:26.477Z,54.32
2023-02-26T05:05:54.066Z,54.20
2023-02-26T05:08:21.725Z,54.50
2023-02-26T05:10:49.336Z,54.21
2023-02-26T05:13:18.484Z,54.49
2023-02-26T05:15:46.586Z,54.70
2023-02-26T05:18:14.444Z,54.92
2023-02-26T05:20:42.319Z,54.77
2023-02-26T05:23:09.932Z,54.58
2023-02-26T05:25:37.556Z,54.68
2023-02-26T05:28:05.524Z,54.55
2023-02-26T05:30:34.618Z,54.56
2023-02-26T05:33:02.210Z,54.53
2023-02-26T05:35:29.867Z,54.38
2023-02-26T05:37:57.499Z,54.42
2023-02-26T05:40:25.544Z,54.54
2023-02-26T05:42:53.215Z,54.56
2023-02-26T05:45:20.843Z,54.41
2023-02-26T05:47:49.853Z,54.58
2023-02-26T05:50:17.786Z,54.61
2023-02-26T05:52:45.420Z,54.59
2023-02-26T05:55:13.648Z,54.55
2023-02-26T05:57:41.333Z,54.67
2023-02-26T06:00:10.745Z,55.01
2023-02-26T06:02:38.385Z,54.64
2023-02-26T06:05:09.070Z,54.89
2023-02-26T06:07:36.739Z,54.91
2023-02-26T06:10:04.639Z,54.87
2023-02-26T06:12:32.352Z,55.24
2023-02-26T06:15:00.117Z,55.45
2023-02-26T06:17:28.006Z,55.47
2023-02-26T06:19:55.624Z,55.56
2023-02-26T06:22:24.649Z,55.54
2023-02-26T06:24:52.311Z,55.78
2023-02-26T06:27:19.994Z,55.75
2023-02-26T06:29:47.677Z,55.65
2023-02-26T06:32:15.581Z,55.66
2023-02-26T06:34:43.271Z,56.02
2023-02-26T06:37:11.047Z,55.74
2023-02-26T06:39:41.284Z,55.44
2023-02-26T06:42:09.086Z,55.72
2023-02-26T06:44:36.689Z,56.02
2023-02-26T06:47:04.620Z,56.04
2023-02-26T06:49:32.503Z,55.76
2023-02-26T06:52:00.419Z,55.54
2023-02-26T06:54:28.221Z,55.40
2023-02-26T06:56:57.874Z,55.33
2023-02-26T06:59:25.937Z,54.82
2023-02-26T07:01:53.628Z,55.02
2023-02-26T07:04:23.759Z,54.83
2023-02-26T07:06:51.588Z,54.86
2023-02-26T07:09:20.409Z,54.71
2023-02-26T07:11:48.164Z,54.55
2023-02-26T07:14:17.458Z,54.42
2023-02-26T07:16:45.228Z,54.55
2023-02-26T07:19:13.033Z,54.49
2023-02-26T07:21:41.120Z,54.25
2023-02-26T07:24:09.517Z,54.15
2023-02-26T07:26:39.327Z,54.07
2023-02-26T07:29:07.120Z,53.82
2023-02-26T07:31:36.768Z,53.40
2023-02-26T07:34:04.565Z,53.19
2023-02-26T07:36:32.330Z,53.40
2023-02-26T07:39:00.106Z,53.23
2023-02-26T07:41:28.214Z,52.91
2023-02-26T07:43:56.135Z,52.49
2023-02-26T07:46:24.023Z,51.84
2023-02-26T07:48:53.274Z,51.76
2023-02-26T07:51:21.115Z,51.41
2023-02-26T07:53:48.705Z,51.55
2023-02-26T07:56:16.423Z,51.70
2023-02-26T07:58:44.153Z,51.69
2023-02-26T08:01:11.912Z,51.35
2023-02-26T08:03:39.837Z,51.57
2023-02-26T08:06:10.060Z,51.26
2023-02-26T08:08:37.774Z,51.63
2023-02-26T08:11:05.737Z,52.08
2023-02-26T08:13:33.886Z,51.56
2023-02-26T08:16:01.669Z,51.30
2023-02-26T08:18:29.710Z,51.72
2023-02-26T08:20:57.368Z,51.64
2023-02-26T08:23:27.663Z,51.64
2023-02-26T08:26:01.448Z,51.28
2023-02-26T08:28:29.145Z,51.30
2023-02-26T08:30:56.930Z,51.17
2023-02-26T08:33:25.796Z,50.45
2023-02-26T08:35:54.141Z,49.91
2023-02-26T08:38:22.116Z,49.57
2023-02-26T08:40:52.761Z,49.46
2023-02-26T08:43:20.833Z,49.42
2023-02-26T08:45:48.722Z,48.72
2023-02-26T08:48:16.468Z,48.84
2023-02-26T08:50:44.119Z,48.68
2023-02-26T08:53:11.801Z,48.24
2023-02-26T08:55:39.470Z,48.38
2023-02-26T08:58:08.773Z,47.79
2023-02-26T09:00:36.466Z,46.28
2023-02-26T09:03:04.256Z,45.93
2023-02-26T09:05:32.054Z,44.58
2023-02-26T09:07:59.819Z,42.50
2023-02-26T09:10:27.927Z,40.15
2023-02-26T09:12:58.521Z,40.55
2023-02-26T09:15:27.667Z,41.67
2023-02-26T09:17:55.468Z,42.72
2023-02-26T09:20:23.199Z,43.32
2023-02-26T09:22:50.917Z,43.67
2023-02-26T09:25:18.780Z,43.12
2023-02-26T09:27:46.432Z,42.52
2023-02-26T09:30:15.344Z,42.02
2023-02-26T09:32:44.656Z,41.89
2023-02-26T09:35:12.722Z,42.26
2023-02-26T09:37:40.483Z,42.59
2023-02-26T09:40:12.292Z,43.10
2023-02-26T09:42:54.326Z,43.32
2023-02-26T09:45:28.357Z,42.26
2023-02-26T09:47:59.203Z,41.33
2023-02-26T09:50:33.217Z,41.83
2023-02-26T09:53:09.593Z,41.26
2023-02-26T09:55:43.576Z,41.43
2023-02-26T09:58:19.151Z,41.91
2023-02-26T10:00:54.536Z,40.16
2023-02-26T10:03:31.460Z,37.55
2023-02-26T10:06:19.442Z,36.33
2023-02-26T10:08:57.289Z,35.84
2023-02-26T10:11:31.510Z,30.61
2023-02-26T10:14:04.889Z,30.55
2023-02-26T10:16:39.462Z,30.34
2023-02-26T10:19:12.541Z,31.14
2023-02-26T10:21:44.951Z,32.72
2023-02-26T10:24:17.264Z,34.15
2023-02-26T10:26:47.034Z,35.06
2023-02-26T10:29:23.382Z,35.93
2023-02-26T10:32:02.828Z,36.51
2023-02-26T10:34:35.916Z,37.56
2023-02-26T10:37:14.392Z,37.68
2023-02-26T10:39:56.169Z,37.89
2023-02-26T10:42:27.109Z,37.03
2023-02-26T10:45:08.741Z,35.12
2023-02-26T10:47:47.542Z,35.55
2023-02-26T10:50:21.516Z,35.97
2023-02-26T10:52:53.766Z,36.75
2023-02-26T10:55:34.435Z,37.87
2023-02-26T10:58:06.724Z,38.21
2023-02-26T11:00:36.331Z,38.97
2023-02-26T11:03:06.609Z,39.81
2023-02-26T11:05:36.341Z,40.40
2023-02-26T11:08:07.035Z,40.13
2023-02-26T11:10:42.675Z,40.46
2023-02-26T11:13:11.214Z,39.88
2023-02-26T11:15:39.136Z,39.44
2023-02-26T11:18:10.336Z,38.86
2023-02-26T11:20:43.005Z,39.55
2023-02-26T11:23:14.511Z,39.72
2023-02-26T11:25:42.415Z,39.06
2023-02-26T11:28:30.884Z,37.88
2023-02-26T11:31:02.990Z,37.33
2023-02-26T11:33:38.160Z,37.78
2023-02-26T11:36:13.074Z,37.52
2023-02-26T11:38:41.439Z,37.93
2023-02-26T11:41:10.148Z,38.64
2023-02-26T11:43:44.780Z,38.75
2023-02-26T11:46:13.813Z,39.26
2023-02-26T11:48:45.500Z,39.81
2023-02-26T11:51:16.854Z,40.59
2023-02-26T11:53:50.978Z,40.25
2023-02-26T11:56:26.960Z,40.09
2023-02-26T11:58:56.087Z,40.13
2023-02-26T12:01:29.196Z,40.47
2023-02-26T12:04:00.814Z,40.69
2023-02-26T12:06:30.845Z,40.13
2023-02-26T12:08:58.695Z,40.38
2023-02-26T12:12:06.194Z,40.30
2023-02-26T12:14:48.436Z,39.31
2023-02-26T12:17:36.225Z,39.19
2023-02-26T12:20:17.619Z,39.37
2023-02-26T12:22:55.908Z,38.56
2023-02-26T12:25:32.588Z,38.88
2023-02-26T12:28:20.105Z,38.91
2023-02-26T12:31:17.310Z,39.30
2023-02-26T12:33:56.343Z,39.99
2023-02-26T12:36:48.364Z,39.62
2023-02-26T12:39:33.452Z,40.06
2023-02-26T12:42:14.062Z,40.05
2023-02-26T12:44:58.053Z,39.70
2023-02-26T12:47:40.343Z,39.68
2023-02-26T12:50:22.952Z,39.37
2023-02-26T12:53:06.335Z,39.47
2023-02-26T12:55:45.517Z,39.32
2023-02-26T12:58:35.602Z,39.01
2023-02-26T13:01:13.991Z,39.63
2023-02-26T13:03:58.574Z,39.51
2023-02-26T13:06:52.367Z,39.45
2023-02-26T13:09:32.213Z,39.29
2023-02-26T13:12:19.837Z,39.75
2023-02-26T13:14:54.767Z,39.72
2023-02-26T13:17:29.371Z,39.95
2023-02-26T13:20:01.616Z,39.37
2023-02-26T13:22:33.413Z,39.17
2023-02-26T13:25:05.077Z,39.12
2023-02-26T13:27:38.591Z,39.48
2023-02-26T13:30:19.807Z,38.65
2023-02-26T13:32:49.996Z,39.20
2023-02-26T13:35:22.201Z,39.06
2023-02-26T13:37:52.730Z,39.03
2023-02-26T13:40:47.477Z,39.07
2023-02-26T13:43:34.811Z,39.63
2023-02-26T13:46:15.175Z,38.91
2023-02-26T13:48:53.916Z,38.77
2023-02-26T13:51:31.616Z,38.47
2023-02-26T13:54:02.203Z,38.55
2023-02-26T13:56:53.405Z,38.99
2023-02-26T13:59:48.326Z,39.30
2023-02-26T14:02:45.584Z,38.98
2023-02-26T14:05:47.173Z,39.67
2023-02-26T14:08:28.403Z,39.67
2023-02-26T14:10:59.670Z,39.22
2023-02-26T14:13:36.563Z,39.26
2023-02-26T14:16:13.853Z,39.46
2023-02-26T14:18:51.942Z,40.20
2023-02-26T14:21:37.106Z,40.70
2023-02-26T14:24:14.580Z,42.62
2023-02-26T14:26:47.272Z,40.94
2023-02-26T14:29:20.819Z,40.76
2023-02-26T14:32:14.015Z,40.44
2023-02-26T14:34:50.627Z,40.24
2023-02-26T14:37:22.746Z,40.66
2023-02-26T14:39:56.358Z,41.17
2023-02-26T14:42:32.144Z,40.69
2023-02-26T14:45:10.116Z,40.86
2023-02-26T14:47:39.745Z,41.00
2023-02-26T14:50:08.601Z,40.46
2023-02-26T14:52:52.913Z,40.18
2023-02-26T14:55:45.530Z,40.92
2023-02-26T14:58:27.928Z,40.92
2023-02-26T15:01:16.059Z,40.63
2023-02-26T15:04:15.039Z,40.63
2023-02-26T15:06:58.896Z,40.78
2023-02-26T15:09:36.740Z,40.24
2023-02-26T15:12:20.519Z,39.68
2023-02-26T15:15:03.856Z,39.30
2023-02-26T15:17:45.514Z,38.97
2023-02-26T15:20:25.036Z,39.14
2023-02-26T15:23:06.808Z,39.52
2023-02-26T15:25:37.607Z,39.30
2023-02-26T15:28:07.882Z,38.74
2023-02-26T15:30:36.136Z,39.80
2023-02-26T15:33:08.687Z,39.56
2023-02-26T15:35:37.707Z,39.25
2023-02-26T15:38:05.850Z,39.21
2023-02-26T15:40:37.366Z,38.61
2023-02-26T15:43:07.882Z,39.48
2023-02-26T15:45:38.806Z,39.59
2023-02-26T15:48:08.768Z,39.37
2023-02-26T15:50:42.223Z,39.61
2023-02-26T15:53:14.100Z,39.55
2023-02-26T15:55:52.648Z,39.29
2023-02-26T15:58:22.984Z,39.41
2023-02-26T16:00:55.003Z,39.44
2023-02-26T16:03:28.234Z,39.49
2023-02-26T16:05:59.306Z,39.48
2023-02-26T16:08:27.460Z,39.33
2023-02-26T16:10:57.718Z,39.22
2023-02-26T16:13:31.039Z,39.37
2023-02-26T16:16:05.743Z,39.17
2023-02-26T16:18:35.014Z,39.19
2023-02-26T16:21:08.670Z,39.16
2023-02-26T16:23:44.831Z,38.96
2023-02-26T16:26:17.958Z,39.32
2023-02-26T16:28:48.733Z,39.18
2023-02-26T16:31:19.822Z,39.69
2023-02-26T16:33:55.474Z,39.62
2023-02-26T16:36:27.357Z,40.15
2023-02-26T16:39:02.738Z,40.20
2023-02-26T16:41:36.049Z,40.38
2023-02-26T16:44:05.929Z,40.30
2023-02-26T16:46:43.565Z,40.47
2023-02-26T16:49:18.464Z,40.44
2023-02-26T16:51:49.047Z,39.97
2023-02-26T16:54:20.988Z,40.13
2023-02-26T16:56:52.174Z,39.63
2023-02-26T16:59:23.356Z,39.33
2023-02-26T17:01:54.994Z,39.60
2023-02-26T17:04:26.806Z,40.40
2023-02-26T17:06:56.679Z,39.90
2023-02-26T17:09:31.906Z,39.63
2023-02-26T17:12:12.275Z,40.15
2023-02-26T17:14:42.191Z,41.33
2023-02-26T17:17:10.514Z,40.60
2023-02-26T17:19:38.515Z,40.78
2023-02-26T17:22:18.408Z,41.83
2023-02-26T17:24:47.545Z,41.36
2023-02-26T17:27:18.802Z,41.22
2023-02-26T17:29:50.854Z,40.54
2023-02-26T17:32:20.852Z,41.05
2023-02-26T17:34:48.650Z,40.74
2023-02-26T17:37:17.720Z,40.87
2023-02-26T17:39:46.071Z,40.73
2023-02-26T17:42:16.316Z,40.39
2023-02-26T17:44:44.244Z,40.83
2023-02-26T17:47:16.611Z,40.78
2023-02-26T17:49:44.483Z,40.64
2023-02-26T17:52:12.129Z,40.38
2023-02-26T17:54:41.261Z,40.57
2023-02-26T17:57:16.464Z,40.89
2023-02-26T17:59:44.171Z,41.10
2023-02-26T18:02:17.990Z,40.88
2023-02-26T18:04:45.711Z,40.81
2023-02-26T18:07:16.339Z,41.14
2023-02-26T18:09:45.865Z,41.31
2023-02-26T18:12:15.592Z,41.34
2023-02-26T18:14:45.358Z,41.73
2023-02-26T18:17:14.581Z,41.71
2023-02-26T18:19:42.518Z,41.36
2023-02-26T18:22:14.100Z,41.69
2023-02-26T18:24:41.855Z,41.09
2023-02-26T18:27:14.691Z,41.28
2023-02-26T18:29:42.702Z,41.35
2023-02-26T18:32:14.547Z,41.58
2023-02-26T18:34:42.672Z,41.42
2023-02-26T18:37:13.513Z,41.61
2023-02-26T18:39:41.373Z,41.73
2023-02-26T18:42:20.349Z,42.16
2023-02-26T18:44:48.191Z,41.86
2023-02-26T18:47:16.413Z,41.95
2023-02-26T18:49:44.208Z,41.95
2023-02-26T18:52:12.457Z,42.08
2023-02-26T18:54:40.594Z,42.14
2023-02-26T18:57:09.882Z,41.57
2023-02-26T18:59:38.893Z,41.63
2023-02-26T19:02:10.967Z,41.83
2023-02-26T19:04:38.788Z,41.92
2023-02-26T19:07:06.605Z,41.96
2023-02-26T19:09:35.083Z,41.76
2023-02-26T19:12:03.537Z,41.90
2023-02-26T19:14:31.208Z,41.85
2023-02-26T19:17:00.286Z,41.65
2023-02-26T19:19:28.654Z,41.90
2023-02-26T19:21:57.734Z,42.04
2023-02-26T19:24:25.532Z,42.08
2023-02-26T19:26:53.128Z,42.14
2023-02-26T19:29:21.418Z,42.41
2023-02-26T19:31:49.327Z,42.22
2023-02-26T19:34:18.482Z,42.22
2023-02-26T19:36:48.132Z,42.22
2023-02-26T19:39:17.344Z,42.30
2023-02-26T19:41:45.858Z,42.13
2023-02-26T19:44:13.535Z,42.40
2023-02-26T19:46:42.108Z,42.75
2023-02-26T19:49:10.076Z,42.75
2023-02-26T19:51:39.815Z,42.82
2023-02-26T19:54:07.776Z,42.76
2023-02-26T19:56:35.529Z,42.77
2023-02-26T19:59:03.688Z,42.35
2023-02-26T20:01:31.938Z,42.96
2023-02-26T20:04:00.872Z,42.47
2023-02-26T20:06:29.087Z,42.83
2023-02-26T20:08:58.115Z,42.79
2023-02-26T20:11:26.106Z,42.81
2023-02-26T20:13:53.996Z,43.07
2023-02-26T20:16:21.952Z,43.03
2023-02-26T20:18:49.656Z,42.97
2023-02-26T20:21:17.267Z,43.23
2023-02-26T20:23:45.429Z,42.86
2023-02-26T20:26:16.742Z,43.05
2023-02-26T20:28:44.840Z,42.72
2023-02-26T20:31:12.980Z,43.11
2023-02-26T20:33:40.750Z,43.21
2023-02-26T20:36:10.192Z,43.66
2023-02-26T20:38:38.606Z,42.99
2023-02-26T20:41:06.670Z,43.38
2023-02-26T20:43:36.307Z,43.48
2023-02-26T20:46:04.628Z,43.64
2023-02-26T20:48:32.264Z,43.78
2023-02-26T20:51:01.115Z,43.99
2023-02-26T20:53:29.299Z,43.90
2023-02-26T20:55:56.975Z,43.84
2023-02-26T20:58:24.711Z,44.20
2023-02-26T21:00:57.971Z,44.27
2023-02-26T21:03:26.162Z,44.11
2023-02-26T21:05:54.128Z,44.09
2023-02-26T21:08:22.100Z,43.94
2023-02-26T21:10:51.134Z,44.09
2023-02-26T21:13:19.140Z,44.20
2023-02-26T21:15:46.928Z,44.16
2023-02-26T21:18:16.119Z,43.82
2023-02-26T21:20:44.017Z,43.34
2023-02-26T21:23:11.887Z,43.64
2023-02-26T21:25:40.062Z,43.69
2023-02-26T21:28:07.828Z,43.64
2023-02-26T21:30:35.656Z,43.89
2023-02-26T21:33:03.458Z,44.02
2023-02-26T21:35:32.617Z,44.19
2023-02-26T21:38:00.425Z,44.32
2023-02-26T21:40:28.145Z,44.49
2023-02-26T21:42:55.753Z,44.83
2023-02-26T21:45:23.696Z,44.89
2023-02-26T21:47:51.578Z,44.86
2023-02-26T21:50:19.386Z,45.01
2023-02-26T21:52:48.618Z,46.56
2023-02-26T21:55:16.366Z,45.81
2023-02-26T21:57:44.162Z,45.41
2023-02-26T22:00:13.093Z,45.49
2023-02-26T22:02:42.383Z,45.61
2023-02-26T22:05:11.427Z,45.72
2023-02-26T22:07:40.039Z,45.87
2023-02-26T22:10:11.998Z,45.71
2023-02-26T22:12:39.882Z,45.61
2023-02-26T22:15:08.747Z,45.90
2023-02-26T22:17:36.443Z,46.13
2023-02-26T22:20:09.774Z,46.31
2023-02-26T22:22:38.003Z,46.25
2023-02-26T22:25:06.791Z,45.98
2023-02-26T22:27:35.875Z,45.97
2023-02-26T22:30:03.581Z,45.87
2023-02-26T22:32:31.317Z,45.91
2023-02-26T22:34:59.379Z,45.72
2023-02-26T22:37:26.986Z,45.94
2023-02-26T22:39:54.734Z,46.19
2023-02-26T22:42:22.396Z,46.08
2023-02-26T22:44:51.512Z,46.36
2023-02-26T22:47:19.181Z,46.41
2023-02-26T22:49:46.857Z,46.13
2023-02-26T22:52:14.677Z,46.06
2023-02-26T22:54:42.392Z,46.12
2023-02-26T22:57:10.202Z,46.17
2023-02-26T22:59:37.935Z,46.22
2023-02-26T23:02:06.996Z,46.07
2023-02-26T23:04:34.824Z,45.99
2023-02-26T23:07:02.601Z,46.33
2023-02-26T23:09:30.294Z,46.45
2023-02-26T23:11:58.009Z,46.31
2023-02-26T23:14:25.617Z,46.46
2023-02-26T23:16:53.275Z,46.51
2023-02-26T23:19:22.418Z,46.42
2023-02-26T23:21:50.099Z,46.69
2023-02-26T23:24:17.864Z,46.48
2023-02-26T23:26:45.934Z,46.53
2023-02-26T23:29:13.539Z,46.57
2023-02-26T23:31:41.815Z,46.65
2023-02-26T23:34:10.942Z,46.49
2023-02-26T23:36:40.021Z,46.61
2023-02-26T23:39:08.603Z,46.36
2023-02-26T23:41:36.702Z,46.65
2023-02-26T23:44:04.314Z,46.75
2023-02-26T23:46:32.132Z,46.85
2023-02-26T23:48:59.908Z,46.79
2023-02-26T23:51:27.755Z,46.80
2023-02-26T23:53:56.937Z,46.76
2023-02-26T23:56:24.683Z,46.78
2023-02-26T23:58:53.024Z,46.88
